ADDS METAR Data INFO
IDs: Format: Raw Decoded Include TAF

Data at: 0030 UTC 11 Dec 2017

KOXI 110015Z AUTO 31007KT 10SM BKN029 OVC033 00/M04 A3000 RMK AO1
KOXI 102355Z AUTO 31005KT 10SM OVC035 00/M04 A2998 RMK AO1
KOXI 102335Z AUTO 31006KT 10SM OVC035 00/M04 A2998 RMK AO1
KOXI 102315Z AUTO 32005KT 10SM OVC035 00/M04 A2997 RMK AO1
KOXI 102255Z AUTO 33006KT 10SM OVC037 00/M04 A2996 RMK AO1
KOXI 102235Z AUTO 33008KT 10SM OVC037 00/M04 A2995 RMK AO1
KOXI 102215Z AUTO 33010KT 10SM OVC037 00/M04 A2994 RMK AO1
KOXI 102155Z AUTO 31007KT 10SM OVC037 01/M04 A2992 RMK AO1
KOXI 102135Z AUTO 31009KT 10SM BKN039 01/M05 A2992 RMK AO1
KOXI 102115Z AUTO 29009G14KT 10SM SCT039 01/M05 A2990 RMK AO1
KOXI 102055Z AUTO 29011KT 10SM SCT034 02/M04 A2989 RMK AO1
KOXI 102035Z AUTO 27009KT 10SM BKN034 02/M05 A2988 RMK AO1
KOXI 102015Z AUTO 25010KT 10SM OVC034 01/M05 A2987 RMK AO1
KOXI 101955Z AUTO 25009KT 10SM OVC034 01/M05 A2987 RMK AO1
KOXI 101935Z AUTO 24011KT 10SM OVC034 01/M05 A2988 RMK AO1
KOXI 101915Z AUTO 24010KT 10SM BKN034 01/M05 A2988 RMK AO1
KOXI 101855Z AUTO 24012G18KT 10SM BKN034 00/M05 A2988 RMK AO1
KOXI 101835Z AUTO 23014G19KT 10SM BKN034 00/M05 A2988 RMK AO1
KOXI 101815Z AUTO 24011KT 10SM SCT034 00/M06 A2989 RMK AO1
KOXI 101755Z AUTO 23012KT 10SM CLR 00/M06 A2989 RMK AO1
KOXI 101735Z AUTO 21010KT 10SM CLR M01/M06 A2991 RMK AO1
KOXI 101715Z AUTO 22011KT 10SM CLR M01/M06 A2991 RMK AO1
KOXI 101655Z AUTO 21013KT 10SM CLR M02/M07 A2992 RMK AO1
KOXI 101635Z AUTO 20012KT 10SM SCT120 M02/M07 A2993 RMK AO1
KOXI 101615Z AUTO 21015G20KT 10SM OVC120 M03/M07 A2994 RMK AO1
KOXI 101555Z AUTO 21012KT 10SM OVC120 M03/M07 A2995 RMK AO1
KOXI 101535Z AUTO 21012KT 10SM BKN120 M03/M07 A2996 RMK AO1
KOXI 101515Z AUTO 21010KT 10SM SCT095 BKN120 M03/M07 A2997 RMK AO1
KOXI 101455Z AUTO 21011KT 10SM OVC095 M04/M08 A2997 RMK AO1
KOXI 101435Z AUTO 21010KT 10SM OVC095 M05/M08 A2998 RMK AO1
KOXI 101415Z AUTO 20009KT 10SM OVC095 M05/M08 A2999 RMK AO1
KOXI 101355Z AUTO 20008KT 10SM SCT075 OVC095 M05/M08 A2999 RMK AO1
KOXI 101335Z AUTO 21009KT 10SM SCT060 OVC095 M05/M08 A3000 RMK AO1
KOXI 101315Z AUTO 21009KT 10SM OVC060 M06/M09 A3000 RMK AO1
KOXI 101255Z AUTO 21009KT 10SM OVC060 M06/M09 A2999 RMK AO1
KOXI 101235Z AUTO 21008KT 10SM SCT060 OVC090 M06/M10 A3000 RMK AO1
KOXI 101215Z AUTO 22008KT 10SM OVC090 M07/M10 A3001 RMK AO1
KOXI 101155Z AUTO 21006KT 10SM OVC090 M07/M10 A3001 RMK AO1
KOXI 101135Z AUTO 21007KT 10SM OVC090 M07/M10 A3000 RMK AO1
KOXI 101115Z AUTO 20008KT 10SM OVC090 M08/M10 A2999 RMK AO1
KOXI 101055Z AUTO 20006KT 10SM BKN100 M08/M11 A3000 RMK AO1
KOXI 101035Z AUTO 19005KT 10SM SCT100 M09/M11 A3000 RMK AO1
KOXI 101015Z AUTO 21005KT 10SM CLR M10/M11 A3001 RMK AO1
KOXI 100955Z AUTO 21004KT 10SM CLR M10/M12 A3002 RMK AO1
KOXI 100935Z AUTO 23006KT 10SM CLR M09/M11 A3002 RMK AO1
KOXI 100915Z AUTO 23006KT 10SM CLR M10/M12 A3003 RMK AO1
KOXI 100855Z AUTO 22005KT 10SM CLR M10/M12 A3004 RMK AO1
KOXI 100835Z AUTO 22007KT 10SM CLR M10/M12 A3004 RMK AO1
KOXI 100815Z AUTO 24006KT 10SM CLR M11/M13 A3004 RMK AO1
KOXI 100755Z AUTO 25006KT 10SM CLR M10/M12 A3005 RMK AO1
KOXI 100735Z AUTO 24005KT 10SM CLR M09/M12 A3004 RMK AO1
KOXI 100715Z AUTO 24007KT 10SM CLR M10/M12 A3005 RMK AO1
KOXI 100655Z AUTO 25007KT 10SM CLR M08/M11 A3005 RMK AO1
KOXI 100635Z AUTO 26009KT 10SM CLR M07/M11 A3005 RMK AO1
KOXI 100615Z AUTO 26008KT 10SM CLR M07/M11 A3006 RMK AO1
KOXI 100555Z AUTO 26008KT 10SM SCT024 M06/M10 A3006 RMK AO1
KOXI 100535Z AUTO 26008KT 10SM SCT026 M06/M10 A3005 RMK AO1
KOXI 100515Z AUTO 28010KT 10SM BKN026 BKN031 M05/M10 A3005 RMK AO1
KOXI 100455Z AUTO 27009KT 10SM OVC028 M04/M08 A3005 RMK AO1
KOXI 100435Z AUTO 28008KT 10SM OVC028 M03/M07 A3005 RMK AO1
KOXI 100415Z AUTO 29011KT 10SM OVC028 M03/M07 A3004 RMK AO1
KOXI 100355Z AUTO 29010KT 10SM OVC032 M02/M07 A3004 RMK AO1
KOXI 100335Z AUTO 29012G17KT 10SM OVC032 M02/M07 A3003 RMK AO1
KOXI 100315Z AUTO 29012G18KT 10SM OVC032 M02/M06 A3003 RMK AO1
KOXI 100255Z AUTO 29014KT 10SM OVC030 M02/M06 A3003 RMK AO1
KOXI 100235Z AUTO 29011KT 10SM BKN028 OVC033 M02/M05 A3002 RMK AO1
KOXI 100215Z AUTO 30012KT 10SM OVC030 M01/M05 A3001 RMK AO1
KOXI 100155Z AUTO 31013KT 10SM OVC029 M01/M05 A3000 RMK AO1
KOXI 100135Z AUTO 31013KT 10SM OVC026 M01/M05 A2999 RMK AO1
KOXI 100115Z AUTO 31015G19KT 10SM BKN026 OVC032 M01/M05 A2998 RMK AO1
KOXI 100055Z AUTO 31013KT 10SM OVC026 M01/M04 A2997 RMK AO1
KOXI 100035Z AUTO 32013KT 10SM BKN024 OVC030 M01/M03 A2996 RMK AO1
KOXI 100015Z AUTO 32015G22KT 7SM OVC022 M01/M03 A2995 RMK AO1
KOXI 092355Z AUTO 31018G22KT 7SM OVC020 M01/M03 A2993 RMK AO1
KOXI 092335Z AUTO 31017G25KT 5SM OVC018 M01/M03 A2992 RMK AO1
KOXI 092315Z AUTO 32018G29KT 3SM OVC018 M01/M02 A2991 RMK AO1
KOXI 092255Z AUTO 32021G28KT 3SM OVC018 M01/M02 A2989 RMK AO1
KOXI 092235Z AUTO 32020G26KT 2 1/2SM SCT005 OVC016 M01/M02 A2987 RMK AO1 VIS 1 3/4V4
KOXI 092215Z AUTO 32019G24KT 1/2SM BKN005 OVC012 M01/M02 A2986 RMK AO1
KOXI 092155Z AUTO 32019G30KT 3/4SM BKN007 OVC014 M01/M02 A2984 RMK AO1
KOXI 092135Z AUTO 32023G29KT 3/4SM BKN005 OVC013 00/M02 A2982 RMK AO1
KOXI 092115Z AUTO 32021G26KT 1/2SM BKN003 OVC008 00/M01 A2980 RMK AO1
KOXI 092055Z AUTO 32022G30KT 3/4SM OVC010 00/M01 A2978 RMK AO1
KOXI 092035Z AUTO 31021G27KT 1 1/4SM SCT008 OVC016 00/M01 A2977 RMK AO1
KOXI 092015Z AUTO 31023G31KT 3/4SM BKN008 OVC014 00/M02 A2975 RMK AO1
KOXI 091955Z AUTO 30022G26KT 1SM OVC005 M01/M02 A2973 RMK AO1
KOXI 091935Z AUTO 30021G25KT 1/4SM OVC003 M01/M02 A2973 RMK AO1
KOXI 091915Z AUTO 29021G28KT 5SM OVC015 00/M02 A2972 RMK AO1
KOXI 091855Z AUTO 29019G25KT 1 3/4SM OVC017 M01/M02 A2972 RMK AO1
KOXI 091835Z AUTO 29016G25KT 7SM OVC017 00/M03 A2972 RMK AO1
KOXI 091815Z AUTO 30016G23KT 7SM OVC017 00/M03 A2972 RMK AO1
KOXI 091755Z AUTO 30017G23KT 5SM BKN019 BKN027 OVC034 00/M03 A2971 RMK AO1
KOXI 091735Z AUTO 30013G20KT 7SM SCT014 BKN028 OVC033 00/M03 A2971 RMK AO1
KOXI 091715Z AUTO 29017G21KT 3SM SCT011 BKN018 OVC032 00/M03 A2970 RMK AO1
KOXI 091655Z AUTO 28013G19KT 1SM OVC007 M01/M02 A2970 RMK AO1
KOXI 091635Z AUTO 28012KT 1/2SM OVC003 M01/M02 A2970 RMK AO1
KOXI 091615Z AUTO 27012KT 1/4SM OVC003 M01/M02 A2970 RMK AO1
KOXI 091555Z AUTO 26015KT 3/4SM BKN005 OVC009 M01/M02 A2969 RMK AO1
KOXI 091535Z AUTO 25010KT 1 3/4SM OVC012 M01/M02 A2969 RMK AO1
KOXI 091515Z AUTO 24007KT 2 1/2SM OVC012 M01/M03 A2969 RMK AO1
KOXI 091455Z AUTO 23006KT 5SM OVC010 M02/M03 A2969 RMK AO1
KOXI 091435Z AUTO 23005KT 5SM OVC010 M02/M03 A2969 RMK AO1
KOXI 091415Z AUTO 22007KT 10SM OVC010 M02/M03 A2969 RMK AO1
KOXI 091355Z AUTO 21007KT 7SM OVC012 M02/M04 A2968 RMK AO1
KOXI 091335Z AUTO 22008KT 10SM OVC012 M03/M04 A2968 RMK AO1
KOXI 091315Z AUTO 21008KT 5SM BKN012 OVC019 M03/M04 A2968 RMK AO1
KOXI 091255Z AUTO 21010KT 10SM BKN012 OVC021 M03/M04 A2968 RMK AO1
KOXI 091235Z AUTO 20010KT 5SM SCT011 BKN014 OVC039 M03/M04 A2968 RMK AO1